Time;durP1;ratioP1;P1;durP2;ratioP2;P2;SDS_P1;SDS_P2;PMS_P1;PMS_P2;Temp;Humidity;BMP_temperature;BMP_pressure;BME280_temperature;BME280_humidity;BME280_pressure;Samples;Min_cycle;Max_cycle;Signal;HPM_P1;HPM_P2
2023/04/23 00:04:03;;;;;;;13.18;4.68;;;;;;;;;;10283910;28;20027;-52
2023/04/23 00:09:06;;;;;;;17.77;5.35;;;;;;;;;;10280741;28;20061;-53
2023/04/23 00:14:07;;;;;;;12.75;5.18;;;;;;;;;;10283023;28;20055;-57
2023/04/23 00:19:08;;;;;;;12.73;5.10;;;;;;;;;;10281966;28;20518;-54
2023/04/23 00:24:08;;;;;;;12.10;4.50;;;;;;;;;;10282752;28;20058;-52
2023/04/23 00:29:09;;;;;;;11.68;4.75;;;;;;;;;;10281917;28;20031;-53
2023/04/23 00:34:10;;;;;;;11.82;4.68;;;;;;;;;;10282086;28;20026;-53
2023/04/23 00:39:10;;;;;;;10.88;5.22;;;;;;;;;;10283004;28;20031;-51
2023/04/23 00:44:12;;;;;;;13.07;4.88;;;;;;;;;;10282697;28;20019;-52
2023/04/23 00:49:14;;;;;;;9.52;4.45;;;;;;;;;;10277596;28;20031;-53
2023/04/23 00:54:14;;;;;;;12.23;4.82;;;;;;;;;;10282990;28;20097;-52
2023/04/23 00:59:15;;;;;;;6.60;4.10;;;;;;;;;;10275546;28;20085;-53
2023/04/23 01:04:17;;;;;;;16.13;5.22;;;;;;;;;;10284609;28;20053;-53
2023/04/23 01:09:18;;;;;;;10.00;4.20;;;;;;;;;;10285081;28;20042;-53
2023/04/23 01:14:19;;;;;;;8.85;4.80;;;;;;;;;;10288240;28;20026;-52
2023/04/23 01:19:20;;;;;;;10.13;4.15;;;;;;;;;;10289583;28;20027;-54
2023/04/23 01:24:21;;;;;;;14.70;5.05;;;;;;;;;;10289036;28;20039;-53
2023/04/23 01:29:21;;;;;;;9.48;4.03;;;;;;;;;;10289421;28;20030;-50
2023/04/23 01:34:22;;;;;;;9.00;4.47;;;;;;;;;;10277911;28;20031;-49
2023/04/23 01:39:23;;;;;;;10.68;4.30;;;;;;;;;;10292597;28;20041;-52
2023/04/23 01:44:23;;;;;;;9.18;4.32;;;;;;;;;;10299096;28;20022;-51
2023/04/23 01:49:24;;;;;;;7.38;4.00;;;;;;;;;;10288258;28;20475;-51
2023/04/23 01:54:25;;;;;;;4.75;3.88;;;;;;;;;;10299119;28;20033;-53
2023/04/23 01:59:25;;;;;;;8.18;4.32;;;;;;;;;;10293815;28;20039;-52
2023/04/23 02:04:28;;;;;;;4.57;3.72;;;;;;;;;;10298964;28;20126;-50
2023/04/23 02:09:28;;;;;;;11.30;4.25;;;;;;;;;;10294610;28;20031;-53
2023/04/23 02:14:29;;;;;;;5.70;3.83;;;;;;;;;;10297762;28;20387;-52
2023/04/23 02:19:33;;;;;;;9.02;4.50;;;;;;;;;;10290240;28;20403;-53
2023/04/23 02:24:33;;;;;;;9.75;4.72;;;;;;;;;;10310323;28;20077;-55
2023/04/23 02:29:35;;;;;;;6.75;4.03;;;;;;;;;;10292677;28;20380;-52
2023/04/23 02:34:36;;;;;;;7.05;3.88;;;;;;;;;;10280893;28;20058;-52
2023/04/23 02:39:39;;;;;;;9.23;3.92;;;;;;;;;;10287848;28;20027;-53
2023/04/23 02:44:40;;;;;;;9.70;3.88;;;;;;;;;;10285521;28;20246;-52
2023/04/23 02:49:40;;;;;;;5.80;3.55;;;;;;;;;;10277216;28;20261;-52
2023/04/23 02:54:41;;;;;;;6.18;3.90;;;;;;;;;;10284418;28;20512;-54
2023/04/23 02:59:42;;;;;;;8.68;3.88;;;;;;;;;;10285180;28;20047;-53
2023/04/23 03:04:43;;;;;;;8.05;4.07;;;;;;;;;;10285900;28;20027;-53
2023/04/23 03:09:43;;;;;;;5.38;3.45;;;;;;;;;;10283470;28;20438;-51
2023/04/23 03:14:44;;;;;;;9.02;3.97;;;;;;;;;;10284849;28;20027;-49
2023/04/23 03:19:45;;;;;;;6.35;3.78;;;;;;;;;;10282941;28;20379;-51
2023/04/23 03:24:45;;;;;;;4.35;3.45;;;;;;;;;;10282581;28;20054;-49
2023/04/23 03:29:46;;;;;;;4.88;3.50;;;;;;;;;;10292725;28;20159;-47
2023/04/23 03:34:46;;;;;;;6.35;3.72;;;;;;;;;;10280387;28;20147;-53
2023/04/23 03:39:47;;;;;;;5.95;3.63;;;;;;;;;;10281683;28;20031;-52
2023/04/23 03:44:47;;;;;;;5.38;3.60;;;;;;;;;;10283549;28;20036;-52
2023/04/23 03:49:48;;;;;;;8.15;3.83;;;;;;;;;;10284272;28;20101;-53
2023/04/23 03:54:49;;;;;;;4.25;3.65;;;;;;;;;;10283940;28;20045;-53
2023/04/23 03:59:49;;;;;;;4.45;3.40;;;;;;;;;;10281124;28;20095;-52
2023/04/23 04:04:50;;;;;;;5.35;3.85;;;;;;;;;;10283819;28;20034;-57
2023/04/23 04:09:51;;;;;;;4.00;3.38;;;;;;;;;;10273547;28;20035;-54
2023/04/23 04:14:51;;;;;;;4.47;3.33;;;;;;;;;;10283943;28;20031;-50
2023/04/23 04:19:52;;;;;;;9.85;3.42;;;;;;;;;;10283294;28;20038;-52
2023/04/23 04:24:53;;;;;;;6.72;3.65;;;;;;;;;;10283784;28;20491;-50
2023/04/23 04:29:53;;;;;;;7.03;3.00;;;;;;;;;;10282978;28;20035;-54
2023/04/23 04:34:54;;;;;;;5.03;2.92;;;;;;;;;;10282949;28;20375;-53
2023/04/23 04:39:54;;;;;;;5.43;3.53;;;;;;;;;;10281943;28;20067;-52
2023/04/23 04:44:58;;;;;;;5.38;3.80;;;;;;;;;;10290982;28;20031;-51
2023/04/23 04:49:59;;;;;;;4.30;3.30;;;;;;;;;;10297641;28;20031;-55
2023/04/23 04:54:59;;;;;;;5.80;3.67;;;;;;;;;;10294694;28;20547;-53
2023/04/23 05:00:17;;;;;;;4.53;3.08;;;;;;;;;;10290498;28;20023;-53
2023/04/23 05:05:20;;;;;;;7.03;3.60;;;;;;;;;;10285743;28;20391;-53
2023/04/23 05:10:21;;;;;;;5.28;3.25;;;;;;;;;;10290468;28;20590;-53
2023/04/23 05:15:22;;;;;;;4.88;3.00;;;;;;;;;;10288939;28;20273;-56
2023/04/23 05:20:22;;;;;;;3.83;2.97;;;;;;;;;;10290454;28;20083;-51
2023/04/23 05:25:23;;;;;;;6.43;3.70;;;;;;;;;;10289863;28;20026;-51
2023/04/23 05:30:24;;;;;;;6.05;3.35;;;;;;;;;;10288867;28;20030;-51
2023/04/23 05:35:24;;;;;;;4.65;3.67;;;;;;;;;;10289184;28;20038;-51
2023/04/23 05:40:25;;;;;;;10.52;3.70;;;;;;;;;;10286906;28;20027;-53
2023/04/23 05:45:26;;;;;;;5.70;3.72;;;;;;;;;;10289433;28;20027;-50
2023/04/23 05:50:26;;;;;;;3.58;3.25;;;;;;;;;;10284490;28;20177;-52
2023/04/23 05:55:27;;;;;;;4.80;3.47;;;;;;;;;;10288481;28;20031;-52
2023/04/23 06:00:28;;;;;;;5.38;3.60;;;;;;;;;;10288566;28;20033;-53
2023/04/23 06:05:28;;;;;;;4.13;3.28;;;;;;;;;;10287638;28;20475;-53
2023/04/23 06:10:29;;;;;;;5.22;3.15;;;;;;;;;;10285492;28;20274;-52
2023/04/23 06:15:30;;;;;;;3.38;3.00;;;;;;;;;;10287178;28;20080;-52
2023/04/23 06:20:30;;;;;;;3.15;2.80;;;;;;;;;;10285515;28;20046;-53
2023/04/23 06:25:31;;;;;;;7.30;3.05;;;;;;;;;;10287932;28;20467;-53
2023/04/23 06:30:31;;;;;;;4.57;3.38;;;;;;;;;;10287164;28;20856;-52
2023/04/23 06:35:32;;;;;;;6.10;4.07;;;;;;;;;;10286924;28;20480;-50
2023/04/23 06:40:33;;;;;;;5.90;3.38;;;;;;;;;;10286690;28;20491;-50
2023/04/23 06:45:34;;;;;;;4.63;3.55;;;;;;;;;;10275935;28;20046;-52
2023/04/23 06:50:34;;;;;;;3.83;3.42;;;;;;;;;;10286147;28;20031;-48
2023/04/23 06:55:35;;;;;;;4.55;3.60;;;;;;;;;;10278143;28;20050;-53
2023/04/23 07:00:35;;;;;;;4.43;3.47;;;;;;;;;;10286718;28;20034;-52
2023/04/23 07:05:36;;;;;;;3.75;3.20;;;;;;;;;;10283005;28;20035;-52
2023/04/23 07:10:36;;;;;;;4.93;3.60;;;;;;;;;;10279197;28;20277;-55
2023/04/23 07:15:37;;;;;;;7.80;3.40;;;;;;;;;;10284194;28;20026;-53
2023/04/23 07:20:38;;;;;;;4.60;3.30;;;;;;;;;;10282519;28;20028;-55
2023/04/23 07:25:38;;;;;;;6.80;3.70;;;;;;;;;;10285103;28;20031;-51
2023/04/23 07:30:39;;;;;;;3.63;3.33;;;;;;;;;;10283747;28;20041;-51
2023/04/23 07:35:39;;;;;;;5.43;3.70;;;;;;;;;;10284079;28;20027;-52
2023/04/23 07:40:40;;;;;;;4.82;3.42;;;;;;;;;;10283778;28;20056;-52
2023/04/23 07:45:41;;;;;;;4.13;3.40;;;;;;;;;;10283169;28;20270;-53
2023/04/23 07:50:41;;;;;;;3.95;3.55;;;;;;;;;;10283679;28;20657;-52
2023/04/23 07:55:42;;;;;;;3.40;3.10;;;;;;;;;;10283649;28;20031;-52
2023/04/23 08:00:42;;;;;;;5.00;3.22;;;;;;;;;;10283176;28;20090;-53
2023/04/23 08:05:43;;;;;;;3.47;3.10;;;;;;;;;;10283112;28;20042;-52
2023/04/23 08:10:44;;;;;;;4.45;3.47;;;;;;;;;;10282486;28;20033;-50
2023/04/23 08:15:45;;;;;;;3.55;3.05;;;;;;;;;;10285474;28;20034;-52
2023/04/23 08:20:46;;;;;;;4.18;3.15;;;;;;;;;;10290720;28;20098;-48
2023/04/23 08:25:46;;;;;;;4.00;3.13;;;;;;;;;;10290678;28;20035;-53
2023/04/23 08:30:47;;;;;;;5.20;3.30;;;;;;;;;;10296526;28;20026;-51
2023/04/23 08:35:47;;;;;;;5.00;3.00;;;;;;;;;;10299861;28;20089;-49
2023/04/23 08:40:52;;;;;;;5.07;3.47;;;;;;;;;;10291476;28;20023;-49
2023/04/23 08:45:53;;;;;;;7.90;4.88;;;;;;;;;;10305632;28;20399;-48
2023/04/23 08:50:56;;;;;;;10.35;3.92;;;;;;;;;;10291525;28;20101;-49
2023/04/23 08:55:58;;;;;;;13.35;4.65;;;;;;;;;;10278094;28;20038;-48
2023/04/23 09:00:59;;;;;;;11.45;7.30;;;;;;;;;;10290796;28;20094;-48
2023/04/23 09:06:00;;;;;;;9.20;5.63;;;;;;;;;;10287711;28;20034;-50
2023/04/23 09:11:01;;;;;;;12.10;6.28;;;;;;;;;;10288153;28;20030;-51
2023/04/23 09:16:04;;;;;;;6.45;4.88;;;;;;;;;;10289252;28;20022;-52
2023/04/23 09:21:06;;;;;;;7.88;5.13;;;;;;;;;;10282448;28;20125;-52
2023/04/23 09:26:07;;;;;;;8.18;5.75;;;;;;;;;;10287253;28;20058;-55
2023/04/23 09:31:07;;;;;;;8.88;6.18;;;;;;;;;;10280046;28;20570;-52
2023/04/23 09:36:14;;;;;;;6.70;5.38;;;;;;;;;;10281205;28;20039;-61
2023/04/23 09:41:26;;;;;;;12.50;7.15;;;;;;;;;;10287621;28;20034;-51
2023/04/23 09:46:40;;;;;;;8.77;6.55;;;;;;;;;;10285590;28;20055;-53
2023/04/23 09:51:47;;;;;;;13.40;6.65;;;;;;;;;;10284783;28;20406;-57
2023/04/23 09:56:55;;;;;;;12.27;8.50;;;;;;;;;;10284166;28;20027;-52
2023/04/23 10:02:00;;;;;;;;;;;;;;;;;;10281025;28;20035;-54
2023/04/23 10:07:03;;;;;;;16.40;7.13;;;;;;;;;;10293092;28;19918;-52
2023/04/23 10:12:05;;;;;;;10.10;7.00;;;;;;;;;;10297984;28;20497;-54
2023/04/23 10:17:06;;;;;;;14.07;9.70;;;;;;;;;;10294657;28;20481;-51
2023/04/23 10:22:10;;;;;;;10.95;8.27;;;;;;;;;;10294543;28;20038;-53
2023/04/23 10:27:14;;;;;;;13.05;10.40;;;;;;;;;;10289766;28;20030;-50
2023/04/23 10:32:15;;;;;;;15.70;8.98;;;;;;;;;;10299150;28;20026;-50
2023/04/23 10:37:20;;;;;;;12.45;7.75;;;;;;;;;;10289373;28;20046;-51
2023/04/23 10:42:22;;;;;;;11.70;8.85;;;;;;;;;;10287593;28;20027;-51
2023/04/23 10:47:22;;;;;;;9.82;7.78;;;;;;;;;;10291668;28;20061;-51
2023/04/23 10:52:23;;;;;;;19.52;12.07;;;;;;;;;;10294575;28;20029;-51
2023/04/23 10:57:24;;;;;;;10.27;8.77;;;;;;;;;;10297823;28;20022;-52
2023/04/23 11:02:41;;;;;;;13.38;9.77;;;;;;;;;;10294588;28;20039;-52
2023/04/23 11:07:41;;;;;;;14.02;10.25;;;;;;;;;;10306683;28;20077;-51
2023/04/23 11:12:43;;;;;;;12.75;9.65;;;;;;;;;;10295545;28;20085;-50
2023/04/23 11:17:43;;;;;;;11.73;8.63;;;;;;;;;;10300074;28;20026;-53
2023/04/23 11:22:51;;;;;;;10.30;8.50;;;;;;;;;;10288138;28;20054;-50
2023/04/23 11:27:55;;;;;;;9.20;7.57;;;;;;;;;;10286770;28;20390;-51
2023/04/23 11:32:58;;;;;;;9.05;7.18;;;;;;;;;;10303892;28;20114;-53
2023/04/23 11:37:59;;;;;;;7.72;6.57;;;;;;;;;;10281260;28;20324;-48
2023/04/23 11:43:03;;;;;;;6.05;5.35;;;;;;;;;;10276993;28;20774;-49
2023/04/23 11:48:04;;;;;;;6.03;5.13;;;;;;;;;;10275698;28;20112;-49
2023/04/23 11:53:08;;;;;;;7.80;5.13;;;;;;;;;;10269234;28;20035;-53
2023/04/23 11:58:10;;;;;;;4.95;4.45;;;;;;;;;;10299517;28;20027;-51
2023/04/23 12:03:12;;;;;;;6.38;4.72;;;;;;;;;;10284203;28;20026;-52
2023/04/23 12:08:18;;;;;;;7.00;5.35;;;;;;;;;;10289851;28;20077;-52
2023/04/23 12:13:32;;;;;;;6.30;4.18;;;;;;;;;;10286975;28;20117;-52
2023/04/23 12:18:40;;;;;;;6.55;4.60;;;;;;;;;;10299397;28;20071;-51
2023/04/23 12:23:43;;;;;;;5.13;4.63;;;;;;;;;;10288874;28;20047;-50
2023/04/23 12:28:50;;;;;;;4.80;3.97;;;;;;;;;;10266157;28;20130;-51
2023/04/23 12:34:08;;;;;;;4.95;4.43;;;;;;;;;;10291117;28;20023;-60
2023/04/23 12:39:34;;;;;;;5.32;4.22;;;;;;;;;;10280479;28;20082;-53
2023/04/23 12:44:37;;;;;;;4.78;4.13;;;;;;;;;;10237868;28;20038;-51
2023/04/23 12:49:39;;;;;;;4.35;3.90;;;;;;;;;;10288292;28;20513;-48
2023/04/23 12:54:40;;;;;;;4.50;4.10;;;;;;;;;;10285533;28;20066;-58
2023/04/23 12:59:47;;;;;;;10.90;4.47;;;;;;;;;;10298470;28;20488;-46
2023/04/23 13:04:48;;;;;;;4.50;4.10;;;;;;;;;;10290136;28;20043;-49
2023/04/23 13:09:48;;;;;;;3.78;3.47;;;;;;;;;;10283220;28;20030;-51
2023/04/23 13:14:49;;;;;;;4.45;4.05;;;;;;;;;;10287603;28;20031;-51
2023/04/23 13:19:50;;;;;;;15.48;4.53;;;;;;;;;;10287080;28;20023;-50
2023/04/23 13:24:50;;;;;;;8.18;4.22;;;;;;;;;;10291602;28;20110;-50
2023/04/23 13:29:51;;;;;;;6.47;4.40;;;;;;;;;;10269513;28;20380;-48
2023/04/23 13:34:52;;;;;;;4.07;3.53;;;;;;;;;;10275019;28;20494;-48
2023/04/23 13:39:53;;;;;;;9.63;3.80;;;;;;;;;;10286446;28;20039;-52
2023/04/23 13:44:53;;;;;;;4.78;3.40;;;;;;;;;;10282809;28;20035;-51
2023/04/23 13:49:54;;;;;;;7.18;3.42;;;;;;;;;;10281254;28;20046;-50
2023/04/23 13:54:55;;;;;;;7.78;3.80;;;;;;;;;;10273224;28;20074;-50
2023/04/23 13:59:57;;;;;;;13.93;3.50;;;;;;;;;;10278305;28;20027;-47
2023/04/23 14:04:57;;;;;;;8.82;3.90;;;;;;;;;;10284108;28;20509;-48
2023/04/23 14:09:58;;;;;;;3.95;3.47;;;;;;;;;;10296233;28;20042;-47
2023/04/23 14:15:09;;;;;;;4.00;3.60;;;;;;;;;;10286365;28;20023;-57
2023/04/23 14:20:14;;;;;;;3.63;3.28;;;;;;;;;;10270564;28;20494;-51
2023/04/23 14:25:23;;;;;;;4.35;3.70;;;;;;;;;;10270256;28;20125;-50
2023/04/23 14:30:26;;;;;;;5.45;3.67;;;;;;;;;;10272240;28;20035;-56
2023/04/23 14:35:27;;;;;;;4.50;3.30;;;;;;;;;;10286828;28;20049;-53
2023/04/23 14:40:27;;;;;;;8.90;3.38;;;;;;;;;;10275596;28;20031;-49
2023/04/23 14:45:30;;;;;;;7.40;3.53;;;;;;;;;;10273108;28;20031;-49
2023/04/23 14:55:35;;;;;;;10.02;4.15;;;;;;;;;;10349626;28;20136;-60
2023/04/23 15:00:35;;;;;;;9.60;3.78;;;;;;;;;;10359239;28;20370;-61
2023/04/23 15:05:37;;;;;;;5.22;3.75;;;;;;;;;;10357130;28;20026;-63
2023/04/23 15:10:37;;;;;;;7.85;4.15;;;;;;;;;;10360720;28;20030;-61
2023/04/23 15:15:58;;;;;;;6.13;3.85;;;;;;;;;;10353057;28;20222;-59
2023/04/23 15:21:05;;;;;;;4.35;3.58;;;;;;;;;;10347042;28;20042;-60
2023/04/23 15:26:05;;;;;;;5.57;4.13;;;;;;;;;;10365415;28;20030;-59
2023/04/23 15:31:06;;;;;;;4.45;3.65;;;;;;;;;;10346607;28;20397;-60
2023/04/23 15:36:07;;;;;;;5.25;3.92;;;;;;;;;;10354144;28;20025;-59
2023/04/23 15:41:07;;;;;;;5.75;3.90;;;;;;;;;;10359397;28;20617;-58
2023/04/23 15:46:08;;;;;;;9.25;4.65;;;;;;;;;;10339238;28;20320;-60
2023/04/23 15:51:08;;;;;;;10.10;4.90;;;;;;;;;;10347276;28;20073;-59
2023/04/23 15:56:09;;;;;;;9.32;4.10;;;;;;;;;;10360311;28;20041;-59
2023/04/23 16:01:10;;;;;;;9.07;5.03;;;;;;;;;;10363378;28;20038;-59
2023/04/23 16:06:10;;;;;;;5.72;3.97;;;;;;;;;;10360362;28;20405;-59
2023/04/23 16:11:13;;;;;;;10.00;4.10;;;;;;;;;;10359063;28;20030;-60
2023/04/23 16:16:14;;;;;;;10.52;4.13;;;;;;;;;;10362605;28;20076;-62
2023/04/23 16:21:14;;;;;;;4.25;3.78;;;;;;;;;;10365065;28;20077;-61
2023/04/23 16:26:15;;;;;;;6.88;3.90;;;;;;;;;;10345505;28;20026;-62
2023/04/23 16:31:16;;;;;;;4.30;3.88;;;;;;;;;;10364781;28;20034;-62
2023/04/23 16:36:17;;;;;;;8.40;3.75;;;;;;;;;;10369674;28;20037;-61
2023/04/23 16:41:18;;;;;;;7.47;3.90;;;;;;;;;;10346480;28;20439;-62
2023/04/23 16:46:19;;;;;;;4.35;3.95;;;;;;;;;;10370846;28;20505;-59
2023/04/23 16:51:20;;;;;;;4.10;3.70;;;;;;;;;;10367154;28;20042;-59
2023/04/23 16:56:21;;;;;;;4.47;3.65;;;;;;;;;;10370726;28;20033;-59
2023/04/23 17:01:22;;;;;;;6.75;4.28;;;;;;;;;;10371785;28;20026;-59
2023/04/23 17:06:29;;;;;;;7.30;3.80;;;;;;;;;;10370411;28;20026;-58
2023/04/23 17:11:30;;;;;;;4.35;3.70;;;;;;;;;;10354082;28;20055;-60
2023/04/23 17:16:31;;;;;;;6.22;3.78;;;;;;;;;;10370804;28;20096;-58
2023/04/23 17:21:32;;;;;;;5.80;4.10;;;;;;;;;;10370742;28;20026;-59
2023/04/23 17:26:32;;;;;;;3.92;3.63;;;;;;;;;;10353663;28;20030;-59
2023/04/23 17:31:33;;;;;;;6.38;3.72;;;;;;;;;;10369676;28;20038;-59
2023/04/23 17:36:34;;;;;;;5.78;3.85;;;;;;;;;;10351123;28;20033;-59
2023/04/23 17:41:35;;;;;;;6.75;3.67;;;;;;;;;;10370426;28;20030;-61
2023/04/23 17:46:35;;;;;;;6.13;3.90;;;;;;;;;;10369958;28;20026;-58
2023/04/23 17:51:36;;;;;;;4.32;3.70;;;;;;;;;;10369416;28;20042;-59
2023/04/23 17:56:37;;;;;;;5.22;3.80;;;;;;;;;;10366115;28;20034;-60
2023/04/23 18:01:37;;;;;;;4.43;3.72;;;;;;;;;;10368034;28;20022;-59
2023/04/23 18:06:38;;;;;;;5.15;4.00;;;;;;;;;;10337018;28;20478;-60
2023/04/23 18:11:39;;;;;;;4.32;3.75;;;;;;;;;;10357164;28;20034;-59
2023/04/23 18:16:39;;;;;;;7.53;4.22;;;;;;;;;;10357505;28;20022;-60
2023/04/23 18:21:40;;;;;;;12.27;4.20;;;;;;;;;;10360624;28;20025;-60
2023/04/23 18:26:41;;;;;;;6.60;3.78;;;;;;;;;;10363306;28;20046;-62
2023/04/23 18:31:41;;;;;;;7.63;4.10;;;;;;;;;;10364729;28;20032;-60
2023/04/23 18:36:43;;;;;;;4.63;4.03;;;;;;;;;;10362044;28;20038;-58
2023/04/23 18:41:44;;;;;;;7.95;4.57;;;;;;;;;;10350402;28;20025;-59
2023/04/23 18:46:45;;;;;;;6.53;4.43;;;;;;;;;;10365416;28;20045;-62
2023/04/23 18:51:51;;;;;;;7.00;4.20;;;;;;;;;;10365414;28;20050;-62
2023/04/23 18:56:52;;;;;;;5.20;4.28;;;;;;;;;;10367142;28;20049;-59
2023/04/23 19:01:54;;;;;;;5.60;4.32;;;;;;;;;;10355732;28;20153;-58
2023/04/23 19:06:55;;;;;;;4.38;3.97;;;;;;;;;;10365777;28;20033;-62
2023/04/23 19:11:56;;;;;;;7.38;4.05;;;;;;;;;;10366236;28;20030;-59
2023/04/23 19:17:04;;;;;;;4.38;3.97;;;;;;;;;;10364670;28;20964;-58
2023/04/23 19:22:05;;;;;;;4.97;4.22;;;;;;;;;;10364703;28;20521;-60
2023/04/23 19:27:06;;;;;;;7.53;4.13;;;;;;;;;;10356709;28;20103;-61
2023/04/23 19:32:06;;;;;;;22.30;5.10;;;;;;;;;;10352556;28;20093;-59
2023/04/23 19:37:07;;;;;;;15.00;5.40;;;;;;;;;;10351698;28;20167;-59
2023/04/23 19:42:07;;;;;;;12.75;5.22;;;;;;;;;;10357689;28;20034;-58
2023/04/23 19:47:08;;;;;;;16.20;6.15;;;;;;;;;;10365619;28;20033;-58
2023/04/23 19:52:20;;;;;;;9.40;4.32;;;;;;;;;;10364220;28;20437;-58
2023/04/23 19:57:21;;;;;;;25.55;6.07;;;;;;;;;;10346420;28;20026;-59
2023/04/23 20:02:22;;;;;;;14.93;5.32;;;;;;;;;;10363107;28;20084;-59
2023/04/23 20:07:22;;;;;;;9.35;5.07;;;;;;;;;;10347663;28;20033;-59
2023/04/23 20:12:23;;;;;;;14.27;5.07;;;;;;;;;;10372456;28;20030;-59
2023/04/23 20:17:25;;;;;;;16.05;5.47;;;;;;;;;;10378229;28;20178;-59
2023/04/23 20:22:27;;;;;;;14.68;5.65;;;;;;;;;;10359190;28;20037;-59
2023/04/23 20:27:28;;;;;;;8.00;4.80;;;;;;;;;;10373611;28;20091;-60
2023/04/23 20:32:29;;;;;;;12.65;5.43;;;;;;;;;;10375766;28;20026;-58
2023/04/23 20:37:30;;;;;;;16.70;5.30;;;;;;;;;;10375280;28;20072;-60
2023/04/23 20:42:30;;;;;;;8.85;5.32;;;;;;;;;;10362670;28;20268;-59
2023/04/23 20:47:32;;;;;;;10.38;5.15;;;;;;;;;;10376901;28;20030;-59
2023/04/23 20:52:32;;;;;;;10.30;5.03;;;;;;;;;;10370507;28;20952;-59
2023/04/23 20:57:33;;;;;;;9.30;4.90;;;;;;;;;;10376729;28;20037;-59
2023/04/23 21:02:36;;;;;;;10.15;4.90;;;;;;;;;;10375736;28;20030;-59
2023/04/23 21:07:37;;;;;;;12.40;4.53;;;;;;;;;;10376311;28;20041;-59
2023/04/23 21:12:38;;;;;;;13.15;5.10;;;;;;;;;;10376078;28;20026;-59
2023/04/23 21:17:39;;;;;;;7.50;4.70;;;;;;;;;;10353254;28;20036;-59
2023/04/23 21:22:39;;;;;;;9.23;4.90;;;;;;;;;;10364642;28;20362;-59
2023/04/23 21:27:43;;;;;;;11.07;4.65;;;;;;;;;;10359992;28;20449;-59
2023/04/23 21:32:43;;;;;;;7.15;4.57;;;;;;;;;;10364191;28;20042;-58
2023/04/23 21:37:44;;;;;;;9.27;4.25;;;;;;;;;;10370956;28;20481;-59
2023/04/23 21:42:46;;;;;;;7.97;4.72;;;;;;;;;;10370720;28;20398;-58
2023/04/23 21:47:47;;;;;;;7.22;4.28;;;;;;;;;;10371709;28;20030;-58
2023/04/23 21:52:51;;;;;;;9.23;4.40;;;;;;;;;;10370086;28;20512;-58
2023/04/23 21:57:53;;;;;;;9.55;4.70;;;;;;;;;;10371089;28;20030;-60
2023/04/23 22:02:54;;;;;;;7.97;4.57;;;;;;;;;;10370193;28;20053;-59
2023/04/23 22:07:55;;;;;;;9.02;4.85;;;;;;;;;;10359376;28;20045;-59
2023/04/23 22:12:57;;;;;;;4.50;4.10;;;;;;;;;;10359424;28;20021;-60
2023/04/23 22:17:58;;;;;;;6.28;4.40;;;;;;;;;;10367955;28;20037;-60
2023/04/23 22:22:59;;;;;;;8.38;4.50;;;;;;;;;;10368332;28;20053;-60
2023/04/23 22:27:59;;;;;;;5.80;4.18;;;;;;;;;;10361066;28;20092;-59
2023/04/23 22:33:00;;;;;;;6.07;3.90;;;;;;;;;;10367114;28;20277;-59
2023/04/23 22:38:01;;;;;;;4.68;3.85;;;;;;;;;;10364691;28;20041;-58
2023/04/23 22:43:01;;;;;;;9.38;3.97;;;;;;;;;;10367973;28;20030;-59
2023/04/23 22:48:02;;;;;;;6.30;4.38;;;;;;;;;;10363615;28;20465;-58
2023/04/23 22:53:02;;;;;;;9.15;4.07;;;;;;;;;;10367106;28;20412;-58
2023/04/23 22:58:03;;;;;;;4.70;4.15;;;;;;;;;;10360072;28;20042;-58
2023/04/23 23:03:03;;;;;;;6.15;3.97;;;;;;;;;;10366735;28;20029;-59
2023/04/23 23:08:05;;;;;;;8.90;4.65;;;;;;;;;;10363152;28;20970;-58
2023/04/23 23:13:06;;;;;;;7.72;4.35;;;;;;;;;;10366408;28;20062;-58
2023/04/23 23:18:06;;;;;;;6.00;4.20;;;;;;;;;;10365963;28;20026;-59
2023/04/23 23:23:07;;;;;;;8.68;4.15;;;;;;;;;;10366486;28;20030;-58
2023/04/23 23:28:07;;;;;;;7.22;3.75;;;;;;;;;;10360589;28;20040;-58
2023/04/23 23:33:08;;;;;;;4.70;3.90;;;;;;;;;;10365857;28;20029;-58
2023/04/23 23:38:09;;;;;;;5.00;4.10;;;;;;;;;;10366346;28;20598;-59
2023/04/23 23:43:10;;;;;;;10.07;4.20;;;;;;;;;;10367201;28;20026;-58
2023/04/23 23:48:11;;;;;;;5.88;4.25;;;;;;;;;;10365165;28;20381;-58
2023/04/23 23:53:11;;;;;;;4.15;3.72;;;;;;;;;;10365803;28;20413;-58
2023/04/23 23:58:12;;;;;;;5.00;3.97;;;;;;;;;;10363189;28;20474;-58
